createdAt,value
2023-01-15T00:01:28.408Z,97831.72
2023-01-15T00:03:56.978Z,97836.34
2023-01-15T00:06:25.742Z,97835.94
2023-01-15T00:08:53.227Z,97840.19
2023-01-15T00:11:20.616Z,97828.06
2023-01-15T00:13:47.627Z,97836.53
2023-01-15T00:16:17.826Z,97834.13
2023-01-15T00:18:49.252Z,97825.25
2023-01-15T00:21:15.830Z,97824.22
2023-01-15T00:23:57.726Z,97829.66
2023-01-15T00:26:45.417Z,97828.66
2023-01-15T00:29:12.011Z,97821.56
2023-01-15T00:31:38.810Z,97822.75
2023-01-15T00:34:05.345Z,97814.09
2023-01-15T00:36:33.676Z,97808.22
2023-01-15T00:39:01.585Z,97804.16
2023-01-15T00:41:28.223Z,97802.28
2023-01-15T00:43:55.414Z,97805.31
2023-01-15T00:46:23.108Z,97804.16
2023-01-15T00:48:50.170Z,97804.97
2023-01-15T00:51:16.796Z,97792.66
2023-01-15T00:53:43.337Z,97787.81
2023-01-15T00:56:09.896Z,97785.97
2023-01-15T00:58:36.466Z,97785.34
2023-01-15T01:01:03.505Z,97788.19
2023-01-15T01:03:30.161Z,97788.41
2023-01-15T01:06:01.601Z,97784.16
2023-01-15T01:08:28.956Z,97785.56
2023-01-15T01:11:12.073Z,97781.50
2023-01-15T01:13:38.877Z,97787.16
2023-01-15T01:16:23.213Z,97779.72
2023-01-15T01:18:51.022Z,97775.06
2023-01-15T01:21:18.284Z,97772.22
2023-01-15T01:23:45.235Z,97773.06
2023-01-15T01:26:11.921Z,97767.41
2023-01-15T01:28:38.599Z,97767.41
2023-01-15T01:31:06.863Z,97758.91
2023-01-15T01:33:33.560Z,97759.13
2023-01-15T01:36:00.157Z,97760.94
2023-01-15T01:38:26.833Z,97756.28
2023-01-15T01:40:53.647Z,97757.13
2023-01-15T01:43:24.712Z,97745.03
2023-01-15T01:46:02.192Z,97731.72
2023-01-15T01:48:36.718Z,97727.47
2023-01-15T01:51:06.063Z,97726.47
2023-01-15T01:53:32.904Z,97728.28
2023-01-15T01:56:00.877Z,97724.63
2023-01-15T01:58:31.661Z,97732.69
2023-01-15T02:01:00.017Z,97722.59
2023-01-15T02:03:32.673Z,97717.38
2023-01-15T02:06:02.921Z,97709.50
2023-01-15T02:08:29.550Z,97708.28
2023-01-15T02:10:56.738Z,97711.50
2023-01-15T02:13:39.752Z,97701.66
2023-01-15T02:16:33.216Z,97703.47
2023-01-15T02:19:23.625Z,97711.09
2023-01-15T02:22:04.598Z,97703.22
2023-01-15T02:24:35.670Z,97699.59
2023-01-15T02:27:24.327Z,97697.38
2023-01-15T02:29:52.925Z,97689.50
2023-01-15T02:32:31.881Z,97687.50
2023-01-15T02:35:06.155Z,97685.22
2023-01-15T02:37:36.857Z,97684.81
2023-01-15T02:40:06.410Z,97699.47
2023-01-15T02:42:36.751Z,97699.25
2023-01-15T02:45:10.232Z,97694.88
2023-01-15T02:47:55.094Z,97689.44
2023-01-15T02:50:27.818Z,97691.25
2023-01-15T02:53:00.979Z,97670.50
2023-01-15T02:55:35.435Z,97668.31
2023-01-15T02:58:07.763Z,97666.53
2023-01-15T03:00:39.125Z,97654.22
2023-01-15T03:03:13.504Z,97652.59
2023-01-15T03:05:47.553Z,97650.41
2023-01-15T03:08:14.592Z,97630.88
2023-01-15T03:10:51.970Z,97632.69
2023-01-15T03:13:31.767Z,97630.69
2023-01-15T03:16:38.789Z,97632.31
2023-01-15T03:19:28.349Z,97628.28
2023-01-15T03:22:07.570Z,97632.31
2023-01-15T03:24:41.174Z,97625.66
2023-01-15T03:27:08.200Z,97622.63
2023-01-15T03:29:39.323Z,97626.66
2023-01-15T03:32:06.332Z,97633.09
2023-01-15T03:34:42.002Z,97623.84
2023-01-15T03:37:08.970Z,97614.56
2023-01-15T03:39:35.679Z,97612.16
2023-01-15T03:42:17.607Z,97613.38
2023-01-15T03:44:57.727Z,97623.25
2023-01-15T03:47:24.766Z,97626.88
2023-01-15T03:50:22.772Z,97620.44
2023-01-15T03:52:50.312Z,97625.66
2023-01-15T03:55:19.273Z,97623.66
2023-01-15T03:57:51.857Z,97620.25
2023-01-15T04:00:25.312Z,97631.50
2023-01-15T04:02:54.651Z,97632.56
2023-01-15T04:05:22.927Z,97638.59
2023-01-15T04:07:51.877Z,97656.09
2023-01-15T04:10:18.707Z,97648.66
2023-01-15T04:12:45.371Z,97644.66
2023-01-15T04:15:12.717Z,97650.28
2023-01-15T04:17:39.593Z,97659.00
2023-01-15T04:20:07.125Z,97657.16
2023-01-15T04:22:33.796Z,97664.81
2023-01-15T04:25:00.331Z,97675.50
2023-01-15T04:27:27.382Z,97682.19
2023-01-15T04:29:54.120Z,97657.41
2023-01-15T04:32:20.794Z,97653.56
2023-01-15T04:34:47.401Z,97644.91
2023-01-15T04:37:14.715Z,97615.66
2023-01-15T04:39:41.253Z,97605.38
2023-01-15T04:42:27.526Z,97580.38
2023-01-15T04:44:54.079Z,97569.88
2023-01-15T04:47:20.603Z,97588.22
2023-01-15T04:49:47.207Z,97585.19
2023-01-15T04:52:14.912Z,97557.59
2023-01-15T04:54:41.677Z,97552.53
2023-01-15T04:57:08.563Z,97547.72
2023-01-15T04:59:35.154Z,97543.47
2023-01-15T05:02:06.015Z,97532.97
2023-01-15T05:04:33.605Z,97526.94
2023-01-15T05:07:02.129Z,97514.84
2023-01-15T05:09:28.672Z,97512.22
2023-01-15T05:11:55.340Z,97505.34
2023-01-15T05:14:21.934Z,97506.56
2023-01-15T05:16:48.475Z,97505.16
2023-01-15T05:19:14.991Z,97507.19
2023-01-15T05:21:43.507Z,97500.13
2023-01-15T05:24:14.595Z,97490.03
2023-01-15T05:26:42.645Z,97487.00
2023-01-15T05:29:11.008Z,97492.03
2023-01-15T05:31:37.607Z,97475.31
2023-01-15T05:34:04.213Z,97477.94
2023-01-15T05:36:32.085Z,97470.06
2023-01-15T05:39:01.895Z,97494.47
2023-01-15T05:41:45.373Z,97499.50
2023-01-15T05:44:13.380Z,97487.00
2023-01-15T05:46:42.207Z,97485.59
2023-01-15T05:49:12.915Z,97473.69
2023-01-15T05:51:40.123Z,97478.56
2023-01-15T05:54:10.781Z,97470.28
2023-01-15T05:56:38.076Z,97454.53
2023-01-15T05:59:06.124Z,97446.09
2023-01-15T06:01:33.082Z,97444.09
2023-01-15T06:04:01.345Z,97442.47
2023-01-15T06:06:28.521Z,97430.78
2023-01-15T06:08:55.772Z,97420.31
2023-01-15T06:11:22.852Z,97430.00
2023-01-15T06:13:49.421Z,97418.91
2023-01-15T06:16:16.067Z,97414.88
2023-01-15T06:18:42.770Z,97412.47
2023-01-15T06:21:11.696Z,97408.22
2023-01-15T06:23:39.651Z,97415.50
2023-01-15T06:26:11.296Z,97425.00
2023-01-15T06:28:37.959Z,97412.47
2023-01-15T06:31:07.532Z,97416.72
2023-01-15T06:33:34.188Z,97419.91
2023-01-15T06:36:17.458Z,97401.56
2023-01-15T06:38:44.894Z,97401.56
2023-01-15T06:41:30.664Z,97391.50
2023-01-15T06:44:12.399Z,97383.22
2023-01-15T06:47:00.384Z,97384.25
2023-01-15T06:49:27.089Z,97391.72
2023-01-15T06:51:53.678Z,97397.75
2023-01-15T06:54:20.201Z,97371.72
2023-01-15T06:56:46.894Z,97362.66
2023-01-15T06:59:13.989Z,97367.50
2023-01-15T07:01:40.670Z,97377.19
2023-01-15T07:04:07.308Z,97374.75
2023-01-15T07:06:33.913Z,97371.91
2023-01-15T07:09:00.505Z,97363.84
2023-01-15T07:11:30.350Z,97355.19
2023-01-15T07:14:07.380Z,97361.44
2023-01-15T07:16:35.035Z,97370.31
2023-01-15T07:19:02.795Z,97375.16
2023-01-15T07:21:29.743Z,97374.13
2023-01-15T07:23:59.187Z,97375.16
2023-01-15T07:26:27.021Z,97364.22
2023-01-15T07:28:54.138Z,97355.16
2023-01-15T07:31:21.487Z,97378.69
2023-01-15T07:33:48.076Z,97378.72
2023-01-15T07:36:14.691Z,97368.63
2023-01-15T07:38:41.568Z,97392.78
2023-01-15T07:41:23.389Z,97404.91
2023-01-15T07:44:05.164Z,97377.47
2023-01-15T07:46:47.203Z,97408.66
2023-01-15T07:49:29.486Z,97421.97
2023-01-15T07:51:56.131Z,97421.19
2023-01-15T07:54:22.907Z,97417.50
2023-01-15T07:56:51.840Z,97423.19
2023-01-15T07:59:18.478Z,97435.47
2023-01-15T08:01:45.214Z,97426.97
2023-01-15T08:04:11.794Z,97436.63
2023-01-15T08:06:38.653Z,97452.13
2023-01-15T08:09:05.565Z,97446.91
2023-01-15T08:11:49.668Z,97454.16
2023-01-15T08:14:31.464Z,97455.13
2023-01-15T08:16:58.073Z,97438.22
2023-01-15T08:19:25.693Z,97433.97
2023-01-15T08:21:52.301Z,97420.06
2023-01-15T08:24:18.828Z,97398.03
2023-01-15T08:26:45.358Z,97389.97
2023-01-15T08:29:11.933Z,97397.03
2023-01-15T08:31:40.532Z,97384.72
2023-01-15T08:34:08.211Z,97387.16
2023-01-15T08:36:35.267Z,97385.09
2023-01-15T08:39:02.253Z,97390.34
2023-01-15T08:41:29.697Z,97392.78
2023-01-15T08:43:56.272Z,97397.47
2023-01-15T08:46:22.854Z,97386.16
2023-01-15T08:48:49.606Z,97384.91
2023-01-15T08:51:16.464Z,97377.66
2023-01-15T08:53:43.044Z,97374.59
2023-01-15T08:56:14.669Z,97386.72
2023-01-15T08:58:41.697Z,97384.09
2023-01-15T09:01:10.431Z,97384.88
2023-01-15T09:03:37.130Z,97386.28
2023-01-15T09:06:05.951Z,97390.28
2023-01-15T09:08:32.545Z,97387.69
2023-01-15T09:11:00.821Z,97388.06
2023-01-15T09:13:28.663Z,97400.16
2023-01-15T09:16:01.237Z,97397.53
2023-01-15T09:18:27.915Z,97377.13
2023-01-15T09:20:54.584Z,97381.97
2023-01-15T09:23:21.237Z,97376.34
2023-01-15T09:25:54.077Z,97384.00
2023-01-15T09:28:20.692Z,97390.06
2023-01-15T09:30:47.350Z,97385.59
2023-01-15T09:33:14.476Z,97387.56
2023-01-15T09:35:42.915Z,97387.56
2023-01-15T09:38:14.096Z,97380.31
2023-01-15T09:40:48.238Z,97376.84
2023-01-15T09:43:27.418Z,97379.25
2023-01-15T09:45:59.848Z,97379.03
2023-01-15T09:48:57.372Z,97381.22
2023-01-15T09:51:47.474Z,97378.38
2023-01-15T09:54:29.514Z,97378.97
2023-01-15T09:56:57.024Z,97387.66
2023-01-15T09:59:24.567Z,97383.22
2023-01-15T10:01:52.841Z,97372.50
2023-01-15T10:04:31.137Z,97363.38
2023-01-15T10:07:08.648Z,97368.63
2023-01-15T10:09:40.030Z,97337.28
2023-01-15T10:12:33.690Z,97340.50
2023-01-15T10:15:16.637Z,97346.78
2023-01-15T10:17:47.645Z,97332.63
2023-01-15T10:20:17.571Z,97346.56
2023-01-15T10:22:50.318Z,97330.00
2023-01-15T10:25:24.064Z,97323.28
2023-01-15T10:27:51.857Z,97337.22
2023-01-15T10:30:37.069Z,97325.72
2023-01-15T10:33:19.820Z,97322.03
2023-01-15T10:36:07.912Z,97316.59
2023-01-15T10:38:49.833Z,97306.88
2023-01-15T10:41:37.126Z,97303.59
2023-01-15T10:44:24.917Z,97298.94
2023-01-15T10:46:59.071Z,97293.69
2023-01-15T10:49:29.932Z,97281.16
2023-01-15T10:52:13.158Z,97284.94
2023-01-15T10:54:48.067Z,97286.53
2023-01-15T10:57:15.562Z,97284.28
2023-01-15T10:59:58.304Z,97275.97
2023-01-15T11:02:39.964Z,97275.97
2023-01-15T11:05:14.303Z,97272.31
2023-01-15T11:08:06.503Z,97265.03
2023-01-15T11:10:32.554Z,97262.75
2023-01-15T11:13:30.130Z,97256.28
2023-01-15T11:16:15.904Z,97258.44
2023-01-15T11:18:59.917Z,97244.28
2023-01-15T11:21:27.805Z,97250.13
2023-01-15T11:23:56.759Z,97241.81
2023-01-15T11:26:25.304Z,97256.31
2023-01-15T11:28:53.090Z,97236.88
2023-01-15T11:31:19.771Z,97211.22
2023-01-15T11:34:03.115Z,97216.59
2023-01-15T11:36:31.545Z,97216.00
2023-01-15T11:38:58.506Z,97223.66
2023-01-15T11:41:48.983Z,97217.97
2023-01-15T11:44:33.045Z,97216.41
2023-01-15T11:47:15.113Z,97218.81
2023-01-15T11:50:06.652Z,97215.97
2023-01-15T11:52:33.441Z,97216.78
2023-01-15T11:55:02.526Z,97223.38
2023-01-15T11:57:32.681Z,97238.88
2023-01-15T11:59:59.693Z,97234.41
2023-01-15T12:02:38.249Z,97219.41
2023-01-15T12:05:06.715Z,97228.03
2023-01-15T12:07:39.659Z,97225.41
2023-01-15T12:10:21.872Z,97219.13
2023-01-15T12:13:19.157Z,97228.47
2023-01-15T12:16:17.550Z,97233.94
2023-01-15T12:18:51.712Z,97231.09
2023-01-15T12:21:39.365Z,97250.53
2023-01-15T12:24:29.533Z,97254.53
2023-01-15T12:27:31.452Z,97250.06
2023-01-15T12:30:00.904Z,97255.34
2023-01-15T12:32:35.458Z,97258.19
2023-01-15T12:35:21.826Z,97269.72
2023-01-15T12:37:55.137Z,97276.00
2023-01-15T12:40:30.308Z,97279.69
2023-01-15T12:43:12.809Z,97280.47
2023-01-15T12:45:53.649Z,97290.53
2023-01-15T12:48:24.092Z,97296.84
2023-01-15T12:50:54.160Z,97305.97
2023-01-15T12:53:38.085Z,97319.47
2023-01-15T12:56:19.770Z,97326.47
2023-01-15T12:59:01.749Z,97337.66
2023-01-15T13:01:42.872Z,97353.66
2023-01-15T13:04:28.328Z,97363.75
2023-01-15T13:07:06.023Z,97374.19
2023-01-15T13:10:07.065Z,97380.47
2023-01-15T13:12:33.985Z,97409.38
2023-01-15T13:15:02.086Z,97423.38
2023-01-15T13:17:28.605Z,97434.28
2023-01-15T13:20:25.993Z,97454.72
2023-01-15T13:22:53.734Z,97461.81
2023-01-15T13:25:54.537Z,97479.16
2023-01-15T13:28:36.353Z,97491.56
2023-01-15T13:31:42.755Z,97505.16
2023-01-15T13:34:30.069Z,97514.44
2023-01-15T13:37:03.509Z,97532.13
2023-01-15T13:39:38.889Z,97545.97
2023-01-15T13:42:21.479Z,97538.56
2023-01-15T13:44:52.832Z,97543.66
2023-01-15T13:47:23.784Z,97552.41
2023-01-15T13:49:54.445Z,97558.84
2023-01-15T13:52:23.441Z,97565.59
2023-01-15T13:54:51.760Z,97577.28
2023-01-15T13:57:25.714Z,97572.94
2023-01-15T13:59:52.489Z,97581.56
2023-01-15T14:02:27.844Z,97592.97
2023-01-15T14:04:54.825Z,97587.31
2023-01-15T14:07:31.961Z,97591.91
2023-01-15T14:10:24.936Z,97594.69
2023-01-15T14:13:02.144Z,97609.47
2023-01-15T14:15:43.836Z,97604.34
2023-01-15T14:18:30.283Z,97613.63
2023-01-15T14:21:21.058Z,97623.78
2023-01-15T14:24:18.066Z,97635.25
2023-01-15T14:26:44.597Z,97648.63
2023-01-15T14:29:37.814Z,97649.66
2023-01-15T14:32:29.010Z,97644.94
2023-01-15T14:34:58.585Z,97651.28
2023-01-15T14:37:30.734Z,97660.63
2023-01-15T14:40:00.381Z,97671.69
2023-01-15T14:42:47.727Z,97673.94
2023-01-15T14:45:14.252Z,97695.41
2023-01-15T14:47:48.335Z,97702.06
2023-01-15T14:50:38.299Z,97706.75
2023-01-15T14:53:30.859Z,97721.16
2023-01-15T14:56:06.639Z,97726.03
2023-01-15T14:58:55.983Z,97723.81
2023-01-15T15:01:34.915Z,97739.00
2023-01-15T15:04:16.773Z,97732.78
2023-01-15T15:06:52.712Z,97728.81
2023-01-15T15:09:47.811Z,97735.50
2023-01-15T15:12:21.676Z,97734.91
2023-01-15T15:14:58.819Z,97730.63
2023-01-15T15:17:49.898Z,97734.28
2023-01-15T15:20:47.774Z,97735.50
2023-01-15T15:23:32.676Z,97751.47
2023-01-15T15:26:05.464Z,97756.78
2023-01-15T15:28:32.382Z,97756.50
2023-01-15T15:31:01.604Z,97768.47
2023-01-15T15:33:37.620Z,97770.94
2023-01-15T15:36:05.019Z,97766.50
2023-01-15T15:38:31.724Z,97771.97
2023-01-15T15:41:05.180Z,97779.28
2023-01-15T15:44:06.467Z,97786.97
2023-01-15T15:46:48.969Z,97787.75
2023-01-15T15:49:16.589Z,97800.91
2023-01-15T15:51:48.801Z,97806.63
2023-01-15T15:54:21.761Z,97810.50
2023-01-15T15:56:53.001Z,97808.50
2023-01-15T15:59:36.457Z,97827.31
2023-01-15T16:02:19.767Z,97831.38
2023-01-15T16:04:48.815Z,97835.63
2023-01-15T16:07:27.127Z,97837.84
2023-01-15T16:10:00.883Z,97848.56
2023-01-15T16:12:31.570Z,97842.13
2023-01-15T16:14:59.321Z,97853.84
2023-01-15T16:17:27.088Z,97851.44
2023-01-15T16:19:56.458Z,97860.94
2023-01-15T16:22:23.378Z,97861.97
2023-01-15T16:24:58.326Z,97862.38
2023-01-15T16:27:32.674Z,97864.41
2023-01-15T16:30:00.058Z,97868.66
2023-01-15T16:32:30.900Z,97862.41
2023-01-15T16:35:05.319Z,97859.19
2023-01-15T16:37:32.224Z,97864.44
2023-01-15T16:40:01.227Z,97867.69
2023-01-15T16:42:35.208Z,97867.91
2023-01-15T16:45:06.813Z,97870.09
2023-01-15T16:47:36.118Z,97867.69
2023-01-15T16:50:18.507Z,97866.88
2023-01-15T16:52:54.852Z,97868.69
2023-01-15T16:55:36.829Z,97868.69
2023-01-15T16:58:33.356Z,97874.94
2023-01-15T17:01:01.320Z,97864.03
2023-01-15T17:03:30.863Z,97878.19
2023-01-15T17:06:04.357Z,97877.56
2023-01-15T17:08:38.278Z,97882.25
2023-01-15T17:11:06.592Z,97891.91
2023-01-15T17:13:41.122Z,97894.75
2023-01-15T17:16:19.484Z,97903.25
2023-01-15T17:18:46.370Z,97913.13
2023-01-15T17:21:18.781Z,97911.72
2023-01-15T17:23:46.430Z,97917.97
2023-01-15T17:26:17.339Z,97904.44
2023-01-15T17:34:23.189Z,97891.31
2023-01-15T17:36:49.803Z,97897.56
2023-01-15T17:39:16.951Z,97899.19
2023-01-15T17:41:44.719Z,97903.41
2023-01-15T17:44:11.474Z,97902.81
2023-01-15T17:46:38.194Z,97888.88
2023-01-15T17:49:04.856Z,97890.06
2023-01-15T17:51:31.505Z,97891.91
2023-01-15T17:53:58.151Z,97894.72
2023-01-15T17:56:40.144Z,97901.19
2023-01-15T17:59:24.223Z,97906.44
2023-01-15T18:02:06.262Z,97910.09
2023-01-15T18:04:52.686Z,97911.28
2023-01-15T18:07:22.578Z,97914.53
2023-01-15T18:09:50.455Z,97914.53
2023-01-15T18:12:17.039Z,97906.66
2023-01-15T18:14:43.628Z,97909.06
2023-01-15T18:17:11.581Z,97909.88
2023-01-15T18:19:38.359Z,97914.53
2023-01-15T18:22:05.022Z,97900.38
2023-01-15T18:24:32.007Z,97897.91
2023-01-15T18:26:58.637Z,97910.81
2023-01-15T18:29:25.383Z,97913.84
2023-01-15T18:31:52.015Z,97917.47
2023-01-15T18:34:18.692Z,97918.09
2023-01-15T18:36:45.405Z,97922.13
2023-01-15T18:39:16.324Z,97914.63
2023-01-15T18:41:42.942Z,97922.72
2023-01-15T18:44:28.896Z,97927.81
2023-01-15T18:46:58.746Z,97933.06
2023-01-15T18:49:25.891Z,97930.44
2023-01-15T18:52:07.889Z,97930.22
2023-01-15T18:54:35.661Z,97921.72
2023-01-15T18:57:02.531Z,97923.94
2023-01-15T18:59:29.228Z,97927.38
2023-01-15T19:01:57.120Z,97927.38
2023-01-15T19:04:23.767Z,97931.03
2023-01-15T19:06:50.616Z,97928.19
2023-01-15T19:09:17.965Z,97936.25
2023-01-15T19:11:44.903Z,97941.09
2023-01-15T19:14:27.186Z,97947.19
2023-01-15T19:17:12.376Z,97946.53
2023-01-15T19:19:42.224Z,97940.72
2023-01-15T19:22:25.466Z,97948.16
2023-01-15T19:24:52.086Z,97946.53
2023-01-15T19:27:18.797Z,97937.88
2023-01-15T19:29:45.427Z,97939.06
2023-01-15T19:32:12.040Z,97932.19
2023-01-15T19:34:38.835Z,97924.94
2023-01-15T19:37:05.668Z,97939.28
2023-01-15T19:39:32.537Z,97949.75
2023-01-15T19:42:15.144Z,97944.72
2023-01-15T19:44:57.141Z,97939.81
2023-01-15T19:47:50.182Z,97939.41
2023-01-15T19:50:20.182Z,97941.66
2023-01-15T19:52:48.770Z,97939.03
2023-01-15T19:55:16.031Z,97933.97
2023-01-15T19:58:00.628Z,97933.34
2023-01-15T20:00:28.096Z,97937.75
2023-01-15T20:02:56.359Z,97932.09
2023-01-15T20:05:25.397Z,97918.38
2023-01-15T20:07:52.010Z,97931.69
2023-01-15T20:10:21.459Z,97927.47
2023-01-15T20:13:03.823Z,97923.59
2023-01-15T20:15:31.387Z,97915.16
2023-01-15T20:17:58.686Z,97929.66
2023-01-15T20:20:26.567Z,97918.97
2023-01-15T20:22:56.112Z,97923.75
2023-01-15T20:25:22.994Z,97920.72
2023-01-15T20:27:49.628Z,97926.81
2023-01-15T20:30:22.204Z,97918.72
2023-01-15T20:32:50.815Z,97918.09
2023-01-15T20:35:22.347Z,97918.91
2023-01-15T20:37:50.447Z,97911.44
2023-01-15T20:40:20.066Z,97917.09
2023-01-15T20:43:02.081Z,97912.25
2023-01-15T20:45:28.743Z,97899.94
2023-01-15T20:48:10.540Z,97898.16
2023-01-15T20:50:43.028Z,97895.91
2023-01-15T20:53:10.901Z,97897.31
2023-01-15T20:55:55.814Z,97890.09
2023-01-15T20:58:24.839Z,97879.75
2023-01-15T21:00:53.022Z,97874.34
2023-01-15T21:03:20.631Z,97870.69
2023-01-15T21:05:47.754Z,97868.66
2023-01-15T21:08:14.402Z,97872.09
2023-01-15T21:10:41.671Z,97862.44
2023-01-15T21:13:08.345Z,97862.81
2023-01-15T21:15:35.005Z,97861.03
2023-01-15T21:18:01.871Z,97848.28
2023-01-15T21:20:28.773Z,97850.53
2023-01-15T21:23:33.324Z,97845.66
2023-01-15T21:26:01.421Z,97843.63
2023-01-15T21:28:33.510Z,97842.22
2023-01-15T21:34:14.704Z,97840.75
2023-01-15T21:36:41.244Z,97848.56
2023-01-15T21:39:07.843Z,97843.03
2023-01-15T21:41:49.737Z,97839.63
2023-01-15T21:44:34.104Z,97834.38
2023-01-15T21:47:03.149Z,97837.75
2023-01-15T21:49:33.257Z,97842.72
2023-01-15T21:52:00.872Z,97839.50
2023-01-15T21:54:27.834Z,97829.25
2023-01-15T21:56:55.145Z,97825.19
2023-01-15T21:59:22.364Z,97826.38
2023-01-15T22:01:50.236Z,97828.59
2023-01-15T22:04:16.936Z,97827.97
2023-01-15T22:06:43.579Z,97816.91
2023-01-15T22:09:10.480Z,97810.84
2023-01-15T22:11:45.487Z,97810.41
2023-01-15T22:14:23.449Z,97803.53
2023-01-15T22:16:53.819Z,97804.09
2023-01-15T22:19:22.238Z,97794.81
2023-01-15T22:21:49.839Z,97793.56
2023-01-15T22:24:16.752Z,97791.53
2023-01-15T22:26:43.768Z,97786.25
2023-01-15T22:29:11.254Z,97789.25
2023-01-15T22:31:41.501Z,97777.34
2023-01-15T22:34:08.810Z,97776.75
2023-01-15T22:36:35.930Z,97770.88
2023-01-15T22:39:02.697Z,97767.47
2023-01-15T22:41:44.459Z,97765.66
2023-01-15T22:44:11.082Z,97764.63
2023-01-15T22:46:37.652Z,97755.53
2023-01-15T22:49:04.491Z,97749.38
2023-01-15T22:51:31.111Z,97760.22
2023-01-15T22:53:58.302Z,97757.56
2023-01-15T22:56:25.401Z,97751.09
2023-01-15T22:58:54.765Z,97754.09
2023-01-15T23:01:24.075Z,97749.25
2023-01-15T23:03:50.764Z,97740.00
2023-01-15T23:06:19.401Z,97749.03
2023-01-15T23:08:46.012Z,97746.53
2023-01-15T23:11:15.468Z,97731.44
2023-01-15T23:13:42.909Z,97728.94
2023-01-15T23:16:09.894Z,97727.13
2023-01-15T23:18:40.256Z,97720.66
2023-01-15T23:21:14.239Z,97715.59
2023-01-15T23:23:41.054Z,97711.94
2023-01-15T23:26:10.787Z,97709.53
2023-01-15T23:28:37.669Z,97698.28
2023-01-15T23:31:04.420Z,97698.38
2023-01-15T23:33:31.398Z,97700.25
2023-01-15T23:35:59.409Z,97679.59
2023-01-15T23:38:26.450Z,97694.84
2023-01-15T23:40:53.093Z,97688.69
2023-01-15T23:43:36.010Z,97681.97
2023-01-15T23:46:19.657Z,97680.84
2023-01-15T23:48:46.238Z,97687.13
2023-01-15T23:51:13.227Z,97677.25
2023-01-15T23:53:39.816Z,97676.50
2023-01-15T23:56:07.306Z,97670.53
2023-01-15T23:58:34.124Z,97671.53
